Time;durP1;ratioP1;P1;durP2;ratioP2;P2;SDS_P1;SDS_P2;PMS_P1;PMS_P2;Temp;Humidity;BMP_temperature;BMP_pressure;BME280_temperature;BME280_humidity;BME280_pressure;Samples;Min_cycle;Max_cycle;Signal;HPM_P1;HPM_P2
2024/03/08 00:02:03;;;;;;;24.17;16.35;;;;;;;3.41;100.00;101811.31;5069467;28;20415;-40
2024/03/08 00:04:28;;;;;;;19.73;14.80;;;;;;;3.44;100.00;101810.16;5070205;28;20025;-40
2024/03/08 00:06:54;;;;;;;17.87;14.13;;;;;;;3.46;100.00;101802.81;5058448;28;20114;-40
2024/03/08 00:09:21;;;;;;;23.07;15.53;;;;;;;3.36;100.00;101810.94;5056743;28;20094;-40
2024/03/08 00:11:46;;;;;;;24.23;15.80;;;;;;;3.36;100.00;101803.75;5056297;28;20025;-38
2024/03/08 00:14:12;;;;;;;20.13;15.57;;;;;;;3.31;100.00;101795.38;5056316;28;20463;-38
2024/03/08 00:16:38;;;;;;;17.50;14.93;;;;;;;3.29;100.00;101796.56;5056721;28;20275;-39
2024/03/08 00:19:03;;;;;;;22.75;15.25;;;;;;;3.27;100.00;101806.56;5055617;28;20038;-39
2024/03/08 00:21:29;;;;;;;19.53;15.13;;;;;;;3.18;100.00;101789.66;5055657;28;20021;-39
2024/03/08 00:23:54;;;;;;;22.03;14.80;;;;;;;3.25;100.00;101800.53;5056707;28;20035;-38
2024/03/08 00:26:21;;;;;;;19.53;13.80;;;;;;;3.24;100.00;101789.03;5055824;28;20287;-38
2024/03/08 00:28:48;;;;;;;17.90;14.38;;;;;;;3.08;100.00;101773.75;5056135;28;20032;-38
2024/03/08 00:31:15;;;;;;;18.00;13.68;;;;;;;3.08;100.00;101772.91;5055705;28;20047;-38
2024/03/08 00:33:41;;;;;;;18.00;14.32;;;;;;;3.08;100.00;101780.94;5055616;28;20445;-38
2024/03/08 00:36:07;;;;;;;21.55;14.95;;;;;;;3.09;100.00;101785.28;5055623;28;20028;-38
2024/03/08 00:38:34;;;;;;;;;;;;;;;3.18;100.00;101776.31;5056345;28;20357;-38
2024/03/08 00:40:59;;;;;;;17.92;13.85;;;;;;;3.02;100.00;101766.34;5056373;28;19987;-38
2024/03/08 00:43:25;;;;;;;17.75;14.90;;;;;;;3.05;100.00;101784.75;5056321;28;20452;-39
2024/03/08 00:45:51;;;;;;;19.33;13.98;;;;;;;3.03;100.00;101773.38;5056229;28;20028;-39
2024/03/08 00:48:16;;;;;;;18.33;14.18;;;;;;;3.06;100.00;101774.88;5055474;28;20017;-39
2024/03/08 00:50:42;;;;;;;17.02;13.73;;;;;;;2.97;100.00;101767.81;5055671;28;20029;-39
2024/03/08 00:53:07;;;;;;;18.60;13.80;;;;;;;2.99;100.00;101772.03;5055381;28;20032;-39
2024/03/08 00:55:33;;;;;;;18.93;14.10;;;;;;;2.94;100.00;101758.31;5056119;28;20287;-39
2024/03/08 00:57:58;;;;;;;18.85;13.70;;;;;;;2.97;100.00;101762.47;5054961;28;20017;-39
2024/03/08 01:00:24;;;;;;;17.17;13.60;;;;;;;2.94;100.00;101755.63;5055502;28;20021;-39
2024/03/08 01:02:49;;;;;;;20.15;14.38;;;;;;;2.93;100.00;101753.09;5054729;28;20445;-39
2024/03/08 01:05:14;;;;;;;16.43;13.50;;;;;;;2.97;100.00;101749.13;5055406;28;20037;-38
2024/03/08 01:07:40;;;;;;;17.33;12.97;;;;;;;2.96;100.00;101752.78;5055344;28;20048;-38
2024/03/08 01:10:12;;;;;;;16.17;13.47;;;;;;;2.93;100.00;101748.63;5055116;28;20067;-39
2024/03/08 01:12:38;;;;;;;19.23;14.05;;;;;;;2.89;100.00;101751.75;5055592;28;20031;-39
2024/03/08 01:15:04;;;;;;;16.58;13.07;;;;;;;2.87;100.00;101751.06;5055201;28;20021;-40
2024/03/08 01:17:31;;;;;;;16.17;12.50;;;;;;;2.82;100.00;101727.50;5053547;28;20032;-39
2024/03/08 01:19:56;;;;;;;;;;;;;;;2.99;100.00;101736.44;5055322;28;20029;-39
2024/03/08 01:22:22;;;;;;;16.20;13.13;;;;;;;2.88;100.00;101736.72;5054777;28;19949;-39
2024/03/08 01:24:47;;;;;;;;;;;;;;;2.91;100.00;101728.38;5055995;28;20033;-39
2024/03/08 01:27:13;;;;;;;17.10;12.70;;;;;;;2.66;100.00;101714.06;5054457;28;20260;-39
2024/03/08 01:29:38;;;;;;;16.60;12.83;;;;;;;2.73;100.00;101726.63;5054969;28;20135;-39
2024/03/08 01:32:04;;;;;;;18.77;13.83;;;;;;;2.69;100.00;101721.78;5054667;28;20021;-40
2024/03/08 01:34:29;;;;;;;17.92;13.82;;;;;;;2.76;100.00;101722.81;5054865;28;20118;-40
2024/03/08 01:36:58;;;;;;;16.10;13.67;;;;;;;2.78;100.00;101723.47;5054185;28;20021;-40
2024/03/08 01:39:23;;;;;;;16.85;13.40;;;;;;;2.75;100.00;101721.97;5055581;28;20274;-40
2024/03/08 01:41:49;;;;;;;18.47;13.60;;;;;;;2.72;100.00;101724.94;5054962;28;20377;-40
2024/03/08 01:44:17;;;;;;;17.67;13.75;;;;;;;2.69;100.00;101713.75;5054707;28;20283;-40
2024/03/08 01:46:44;;;;;;;17.20;12.70;;;;;;;2.68;100.00;101718.22;5054313;28;20068;-40
2024/03/08 01:49:11;;;;;;;15.25;12.88;;;;;;;2.69;100.00;101719.94;5054573;28;20048;-39
2024/03/08 01:51:38;;;;;;;16.50;13.43;;;;;;;2.63;100.00;101703.69;5054239;28;20025;-40
2024/03/08 01:54:04;;;;;;;15.82;13.10;;;;;;;2.62;100.00;101710.88;5053981;28;20037;-40
2024/03/08 01:56:31;;;;;;;17.95;15.23;;;;;;;2.58;100.00;101704.16;5054714;28;20025;-38
2024/03/08 01:58:57;;;;;;;15.02;13.15;;;;;;;2.56;100.00;101688.31;5054663;28;20409;-40
2024/03/08 02:01:23;;;;;;;;;;;;;;;2.62;100.00;101692.16;5054544;28;20025;-38
2024/03/08 02:03:49;;;;;;;17.48;14.13;;;;;;;2.55;100.00;101691.13;5054321;28;20307;-38
2024/03/08 02:06:16;;;;;;;21.02;14.35;;;;;;;2.49;100.00;101702.44;5054192;28;20024;-38
2024/03/08 02:08:46;;;;;;;16.85;13.85;;;;;;;2.50;100.00;101688.94;5053913;28;20112;-38
2024/03/08 02:11:12;;;;;;;15.63;13.35;;;;;;;2.43;100.00;101674.53;5053877;28;20021;-39
2024/03/08 02:13:37;;;;;;;;;;;;;;;2.52;100.00;101688.78;5054463;28;20059;-39
2024/03/08 02:16:04;;;;;;;15.35;13.30;;;;;;;2.50;100.00;101688.09;5053486;28;20300;-39
2024/03/08 02:18:30;;;;;;;15.65;13.43;;;;;;;2.48;100.00;101680.22;5054416;28;20155;-39
2024/03/08 02:20:59;;;;;;;17.17;14.07;;;;;;;2.47;100.00;101688.41;5053707;28;20032;-39
2024/03/08 02:23:26;;;;;;;16.98;13.52;;;;;;;2.40;100.00;101674.03;5054567;28;20029;-39
2024/03/08 02:25:53;;;;;;;17.17;13.60;;;;;;;2.46;100.00;101676.06;5053412;28;20055;-39
2024/03/08 02:28:18;;;;;;;17.83;13.48;;;;;;;2.44;100.00;101670.03;5054245;28;20025;-39
2024/03/08 02:30:46;;;;;;;17.42;14.45;;;;;;;2.16;100.00;101638.19;5053828;28;20491;-39
2024/03/08 02:33:16;;;;;;;15.52;13.32;;;;;;;2.39;100.00;101662.53;5054450;28;20029;-39
2024/03/08 02:35:45;;;;;;;15.70;13.95;;;;;;;2.32;100.00;101662.28;5054003;28;20383;-39
2024/03/08 02:38:11;;;;;;;17.80;14.25;;;;;;;2.29;100.00;101651.94;5053785;28;20029;-39
2024/03/08 02:40:36;;;;;;;20.35;14.48;;;;;;;2.25;100.00;101650.56;5054083;28;20476;-39
2024/03/08 02:43:04;;;;;;;16.33;13.80;;;;;;;2.33;100.00;101650.63;5053192;28;20056;-39
2024/03/08 02:45:30;;;;;;;18.73;13.77;;;;;;;2.31;100.00;101657.94;5054173;28;20028;-39
2024/03/08 02:47:56;;;;;;;16.23;13.95;;;;;;;2.22;100.00;101648.22;5053682;28;20029;-39
2024/03/08 02:50:22;;;;;;;16.48;14.40;;;;;;;2.30;100.00;101650.13;5053408;28;20025;-39
2024/03/08 02:52:47;;;;;;;;;;;;;;;2.30;100.00;101647.44;5053401;28;20025;-39
2024/03/08 02:55:16;;;;;;;16.35;14.63;;;;;;;2.18;100.00;101635.34;5053380;28;19913;-39
2024/03/08 02:57:42;;;;;;;15.13;13.52;;;;;;;2.26;100.00;101648.75;5053196;28;20025;-39
2024/03/08 03:00:12;;;;;;;17.98;15.82;;;;;;;2.16;100.00;101643.50;5053035;28;20021;-39
2024/03/08 03:02:38;;;;;;;16.08;14.32;;;;;;;2.25;100.00;101636.41;5052925;28;20017;-39
2024/03/08 03:05:06;;;;;;;17.27;15.40;;;;;;;2.23;100.00;101630.38;5052945;28;20075;-39
2024/03/08 03:07:33;;;;;;;18.92;15.15;;;;;;;2.14;100.00;101626.81;5052859;28;20327;-39
2024/03/08 03:10:00;;;;;;;17.08;15.07;;;;;;;2.15;100.00;101628.50;5053691;28;20025;-39
2024/03/08 03:12:25;;;;;;;16.83;15.02;;;;;;;2.17;100.00;101629.16;5053394;28;20087;-39
2024/03/08 03:14:51;;;;;;;17.05;15.15;;;;;;;2.17;100.00;101623.84;5053601;28;20465;-39
2024/03/08 03:17:17;;;;;;;;;;;;;;;2.23;100.00;101627.69;5053545;28;20035;-39
2024/03/08 03:19:42;;;;;;;20.20;15.73;;;;;;;1.82;100.00;101600.75;5053083;28;19904;-39
2024/03/08 03:22:09;;;;;;;15.57;13.90;;;;;;;2.02;100.00;101620.91;5052974;28;20278;-39
2024/03/08 03:24:38;;;;;;;17.75;15.52;;;;;;;1.95;100.00;101619.00;5053012;28;20071;-39
2024/03/08 03:27:10;;;;;;;18.27;14.52;;;;;;;1.93;100.00;101600.50;5053458;28;20025;-39
2024/03/08 03:29:49;;;;;;;17.05;15.00;;;;;;;1.94;100.00;101609.31;5053497;28;20031;-39
2024/03/08 03:32:15;;;;;;;16.88;15.00;;;;;;;1.97;100.00;101609.03;5053715;28;20021;-38
2024/03/08 03:34:41;;;;;;;16.45;14.73;;;;;;;1.97;100.00;101612.53;5053406;28;20032;-39
2024/03/08 03:37:08;;;;;;;17.55;15.18;;;;;;;2.00;100.00;101614.03;5052804;28;20041;-39
2024/03/08 03:39:34;;;;;;;20.02;16.05;;;;;;;2.01;100.00;101603.22;5052865;28;20060;-38
2024/03/08 03:42:02;;;;;;;16.98;15.18;;;;;;;2.00;100.00;101609.56;5054175;28;20025;-39
2024/03/08 03:44:28;;;;;;;18.58;15.38;;;;;;;2.00;100.00;101606.03;5056909;28;20029;-39
2024/03/08 03:46:53;;;;;;;;;;;;;;;2.10;100.00;101609.47;5057011;28;20021;-39
2024/03/08 03:49:19;;;;;;;18.67;15.38;;;;;;;1.97;100.00;101601.84;5057361;28;20344;-39
2024/03/08 03:51:45;;;;;;;17.00;14.98;;;;;;;1.94;100.00;101598.66;5057250;28;20020;-39
2024/03/08 03:54:10;;;;;;;18.98;16.17;;;;;;;1.93;100.00;101597.00;5056522;28;20125;-39
2024/03/08 03:56:36;;;;;;;18.23;16.30;;;;;;;1.84;100.00;101584.59;5056383;28;20021;-39
2024/03/08 03:59:01;;;;;;;19.20;16.70;;;;;;;1.83;100.00;101596.25;5056408;28;20033;-39
2024/03/08 04:01:27;;;;;;;19.20;17.20;;;;;;;1.81;100.00;101583.06;5056005;28;20025;-40
2024/03/08 04:03:52;;;;;;;20.20;16.53;;;;;;;1.79;100.00;101583.22;5056285;28;20029;-39
2024/03/08 04:06:17;;;;;;;18.60;15.67;;;;;;;1.78;100.00;101575.38;5055995;28;20027;-39
2024/03/08 04:08:43;;;;;;;19.13;16.67;;;;;;;1.82;100.00;101589.25;5056239;28;20279;-39
2024/03/08 04:11:08;;;;;;;18.07;16.17;;;;;;;1.85;100.00;101576.41;5056219;28;20031;-39
2024/03/08 04:13:36;;;;;;;18.77;16.83;;;;;;;1.78;100.00;101568.22;5056422;28;20025;-38
2024/03/08 04:16:01;;;;;;;17.60;15.70;;;;;;;1.84;100.00;101573.91;5055960;28;20029;-39
2024/03/08 04:18:27;;;;;;;18.70;16.65;;;;;;;1.84;100.00;101579.25;5056007;28;20021;-39
2024/03/08 04:20:53;;;;;;;18.85;15.80;;;;;;;1.74;100.00;101558.84;5055960;28;20025;-39
2024/03/08 04:23:19;;;;;;;22.15;17.83;;;;;;;1.61;100.00;101558.44;5056206;28;20024;-39
2024/03/08 04:25:45;;;;;;;18.85;16.85;;;;;;;1.73;100.00;101570.50;5055858;28;20025;-39
2024/03/08 04:28:13;;;;;;;20.50;16.13;;;;;;;1.67;100.00;101573.81;5056415;28;20037;-39
2024/03/08 04:30:39;;;;;;;21.08;16.98;;;;;;;1.68;100.00;101569.31;5055518;28;20060;-39
2024/03/08 04:33:08;;;;;;;18.33;16.13;;;;;;;1.69;100.00;101570.97;5056424;28;20088;-39
2024/03/08 04:35:34;;;;;;;19.05;16.98;;;;;;;1.72;100.00;101568.00;5055806;28;20112;-39
2024/03/08 04:37:59;;;;;;;19.50;16.98;;;;;;;1.67;100.00;101565.81;5055538;28;20109;-39
2024/03/08 04:40:25;;;;;;;23.23;18.13;;;;;;;1.65;100.00;101564.28;5055797;28;20067;-39
2024/03/08 04:42:51;;;;;;;18.67;16.67;;;;;;;1.61;100.00;101565.56;5055192;28;20477;-39
2024/03/08 04:45:17;;;;;;;;;;;;;;;1.68;100.00;101563.97;5055853;28;20083;-39
2024/03/08 04:47:42;;;;;;;19.48;16.95;;;;;;;1.63;100.00;101561.78;5055643;28;19905;-39
2024/03/08 04:50:09;;;;;;;20.90;17.63;;;;;;;1.59;100.00;101563.06;5055688;28;20480;-39
2024/03/08 04:52:35;;;;;;;19.02;16.90;;;;;;;1.61;100.00;101554.91;5055804;28;20021;-39
2024/03/08 04:55:01;;;;;;;26.55;17.90;;;;;;;1.54;100.00;101560.03;5055217;28;20128;-39
2024/03/08 04:57:27;;;;;;;;;;;;;;;1.59;100.00;101555.06;5055987;28;20021;-39
2024/03/08 04:59:53;;;;;;;19.02;16.42;;;;;;;1.52;100.00;101546.03;5055529;28;20232;-39
2024/03/08 05:02:18;;;;;;;20.27;17.00;;;;;;;1.51;100.00;101541.66;5055136;28;20056;-39
2024/03/08 05:04:43;;;;;;;20.23;18.13;;;;;;;1.51;100.00;101539.88;5055975;28;20103;-39
2024/03/08 05:07:09;;;;;;;20.40;17.93;;;;;;;1.36;100.00;101527.22;5055122;28;20268;-39
2024/03/08 05:09:36;;;;;;;19.92;16.73;;;;;;;1.46;100.00;101543.97;5055076;28;20025;-39
2024/03/08 05:12:01;;;;;;;20.67;17.48;;;;;;;1.45;100.00;101540.47;5054691;28;20029;-39
2024/03/08 05:14:27;;;;;;;24.65;19.05;;;;;;;1.33;100.00;101539.03;5054945;28;20029;-39
2024/03/08 05:16:52;;;;;;;20.30;17.83;;;;;;;1.35;100.00;101534.38;5054851;28;20100;-39
2024/03/08 05:19:19;;;;;;;20.57;18.43;;;;;;;1.35;100.00;101536.22;5055220;28;20112;-39
2024/03/08 05:21:45;;;;;;;19.80;17.48;;;;;;;1.36;100.00;101541.38;5055265;28;20271;-38
2024/03/08 05:24:11;;;;;;;;;;;;;;;1.45;100.00;101540.47;5055514;28;20056;-39
2024/03/08 05:26:37;;;;;;;19.63;17.52;;;;;;;1.38;100.00;101534.09;5055414;28;19911;-39
2024/03/08 05:29:03;;;;;;;22.30;19.92;;;;;;;1.28;100.00;101531.50;5054630;28;20021;-39
2024/03/08 05:31:31;;;;;;;27.02;20.30;;;;;;;1.31;100.00;101534.84;5055331;28;20025;-39
2024/03/08 05:33:56;;;;;;;28.88;18.70;;;;;;;1.30;100.00;101531.34;5054421;28;20024;-39
2024/03/08 05:36:22;;;;;;;20.63;17.43;;;;;;;1.27;100.00;101521.84;5054600;28;20019;-39
2024/03/08 05:38:50;;;;;;;20.90;18.15;;;;;;;1.24;100.00;101519.47;5054058;28;20029;-39
2024/03/08 05:41:16;;;;;;;20.70;18.30;;;;;;;1.26;100.00;101528.13;5054385;28;20029;-39
2024/03/08 05:43:41;;;;;;;20.80;18.13;;;;;;;1.29;100.00;101525.19;5055054;28;20033;-39
2024/03/08 05:46:07;;;;;;;19.45;17.42;;;;;;;1.35;100.00;101525.56;5054862;28;20021;-39
2024/03/08 05:48:32;;;;;;;22.33;18.43;;;;;;;1.29;100.00;101522.53;5054395;28;20028;-39
2024/03/08 05:50:59;;;;;;;21.40;19.17;;;;;;;1.16;100.00;101500.75;5054234;28;20366;-39
2024/03/08 05:53:25;;;;;;;22.27;18.75;;;;;;;1.19;100.00;101510.28;5055291;28;20397;-39
2024/03/08 05:55:50;;;;;;;22.57;18.93;;;;;;;1.23;100.00;101507.16;5054715;28;20471;-39
2024/03/08 05:58:15;;;;;;;22.27;19.83;;;;;;;1.16;100.00;101511.41;5054529;28;20025;-39
2024/03/08 06:00:41;;;;;;;21.00;17.43;;;;;;;1.24;100.00;101508.81;5053878;28;20114;-39
2024/03/08 06:03:07;;;;;;;19.83;17.70;;;;;;;1.17;100.00;101510.44;5054398;28;20017;-39
2024/03/08 06:05:33;;;;;;;21.30;18.63;;;;;;;1.10;100.00;101505.88;5053427;28;20497;-39
2024/03/08 06:07:58;;;;;;;21.88;19.55;;;;;;;1.12;100.00;101510.03;5054766;28;20025;-39
2024/03/08 06:10:24;;;;;;;22.37;19.93;;;;;;;1.01;100.00;101486.31;5053908;28;20059;-39
2024/03/08 06:12:50;;;;;;;22.00;19.20;;;;;;;1.12;100.00;101510.03;5053897;28;20028;-39
2024/03/08 06:15:15;;;;;;;;;;;;;;;1.22;100.00;101500.16;5053848;28;20025;-39
2024/03/08 06:17:42;;;;;;;20.30;18.20;;;;;;;1.14;100.00;101505.41;5053789;28;19966;-39
2024/03/08 06:20:10;;;;;;;21.23;18.85;;;;;;;1.11;100.00;101489.72;5054311;28;20339;-39
2024/03/08 06:22:41;;;;;;;22.73;18.83;;;;;;;1.01;100.00;101470.31;5054249;28;20056;-39
2024/03/08 06:25:08;;;;;;;23.63;19.77;;;;;;;1.16;100.00;101502.56;5053917;28;20025;-39
2024/03/08 06:27:34;;;;;;;21.27;18.38;;;;;;;1.14;100.00;101491.25;5053656;28;20103;-39
2024/03/08 06:30:00;;;;;;;22.90;18.42;;;;;;;1.11;100.00;101495.03;5054136;28;20063;-39
2024/03/08 06:32:25;;;;;;;21.35;19.05;;;;;;;1.08;100.00;101482.06;5053616;28;20089;-40
2024/03/08 06:34:51;;;;;;;21.35;18.48;;;;;;;1.21;100.00;101489.63;5053852;28;20029;-40
2024/03/08 06:37:21;;;;;;;24.10;19.17;;;;;;;1.17;100.00;101491.78;5053576;28;20021;-39
2024/03/08 06:39:47;;;;;;;20.42;17.83;;;;;;;1.22;100.00;101481.50;5053439;28;20138;-39
2024/03/08 06:42:13;;;;;;;21.50;18.20;;;;;;;1.22;100.00;101470.84;5053115;28;20417;-39
2024/03/08 06:44:45;;;;;;;21.67;18.63;;;;;;;1.23;100.00;101472.50;5053697;28;20052;-39
2024/03/08 06:47:10;;;;;;;22.83;19.17;;;;;;;1.22;100.00;101476.19;5053983;28;20464;-39
2024/03/08 06:49:36;;;;;;;22.50;18.50;;;;;;;1.25;100.00;101472.34;5053454;28;20108;-39
2024/03/08 06:52:01;;;;;;;24.17;20.07;;;;;;;1.25;100.00;101473.19;5053078;28;20028;-39
2024/03/08 06:54:27;;;;;;;22.03;19.50;;;;;;;1.24;100.00;101471.53;5053470;28;20041;-39
2024/03/08 06:56:52;;;;;;;25.60;19.13;;;;;;;1.25;100.00;101470.53;5053370;28;20024;-39
2024/03/08 06:59:17;;;;;;;22.97;19.80;;;;;;;1.36;100.00;101485.41;5053821;28;20095;-39
2024/03/08 07:01:43;;;;;;;21.33;17.52;;;;;;;1.39;100.00;101478.97;5053780;28;20028;-40
2024/03/08 07:04:08;;;;;;;21.52;18.27;;;;;;;1.43;100.00;101480.31;5054082;28;20025;-39
2024/03/08 07:06:34;;;;;;;19.83;17.40;;;;;;;1.46;100.00;101464.84;5053321;28;20075;-39
2024/03/08 07:08:59;;;;;;;20.40;18.17;;;;;;;1.49;100.00;101466.38;5053554;28;20025;-39
2024/03/08 07:11:25;;;;;;;21.98;17.98;;;;;;;1.62;100.00;101466.78;5053179;28;20020;-39
2024/03/08 07:13:50;;;;;;;19.43;17.47;;;;;;;1.67;100.00;101467.16;5053742;28;20107;-39
2024/03/08 07:16:15;;;;;;;21.63;17.33;;;;;;;1.73;100.00;101465.69;5055003;28;20013;-40
2024/03/08 07:18:43;;;;;;;19.57;17.47;;;;;;;1.75;100.00;101456.50;5057320;28;20020;-39
2024/03/08 07:21:10;;;;;;;21.38;18.42;;;;;;;1.86;100.00;101466.09;5057133;28;20409;-40
2024/03/08 07:26:33;;;;;;;;;;;;;;;2.01;100.00;101463.66;5044997;28;20029;-39
2024/03/08 07:29:00;;;;;;;21.10;18.70;;;;;;;1.89;100.00;101448.94;5057003;28;19963;-39
2024/03/08 07:33:53;;;;;;;20.17;18.02;;;;;;;2.09;100.00;101466.34;5057414;28;20036;-39
2024/03/08 07:36:22;;;;;;;22.13;19.27;;;;;;;2.11;100.00;101463.53;5057299;28;20021;-39
2024/03/08 07:38:47;;;;;;;21.33;18.23;;;;;;;2.04;100.00;101447.31;5056489;28;20025;-39
2024/03/08 07:41:13;;;;;;;21.50;18.50;;;;;;;2.18;100.00;101449.38;5056787;28;20024;-40
2024/03/08 07:43:38;;;;;;;21.45;18.55;;;;;;;2.26;100.00;101449.41;5057225;28;20441;-39
2024/03/08 07:46:04;;;;;;;21.52;17.58;;;;;;;2.30;100.00;101448.09;5056927;28;20110;-39
2024/03/08 07:48:30;;;;;;;21.70;17.90;;;;;;;2.35;100.00;101439.59;5057167;28;20021;-39
2024/03/08 07:50:56;;;;;;;21.88;17.70;;;;;;;2.42;100.00;101442.44;5057039;28;20021;-40
2024/03/08 07:53:21;;;;;;;19.67;17.17;;;;;;;2.47;100.00;101442.81;5056633;28;20017;-39
2024/03/08 07:55:47;;;;;;;20.38;17.58;;;;;;;2.54;100.00;101441.16;5057150;28;20071;-39
2024/03/08 07:58:13;;;;;;;21.10;17.83;;;;;;;2.57;100.00;101433.63;5056474;28;20025;-39
2024/03/08 08:00:38;;;;;;;21.75;18.67;;;;;;;2.56;100.00;101425.81;5056395;28;20027;-39
2024/03/08 08:03:05;;;;;;;24.30;18.52;;;;;;;2.59;100.00;101414.81;5056969;28;20033;-39
2024/03/08 08:05:35;;;;;;;;;;;;;;;2.81;100.00;101422.16;5056740;28;20028;-39
2024/03/08 08:08:02;;;;;;;19.17;17.05;;;;;;;2.91;100.00;101421.16;5056230;28;19904;-39
2024/03/08 08:10:28;;;;;;;20.92;17.48;;;;;;;2.98;100.00;101419.50;5056748;28;20056;-39
2024/03/08 08:12:54;;;;;;;19.65;17.65;;;;;;;3.07;100.00;101414.00;5056761;28;20410;-40
2024/03/08 08:15:20;;;;;;;19.35;16.55;;;;;;;3.10;100.00;101389.59;5056117;28;20449;-39
2024/03/08 08:17:46;;;;;;;19.67;16.42;;;;;;;3.19;100.00;101405.63;5056038;28;20099;-39
2024/03/08 08:20:12;;;;;;;19.98;16.23;;;;;;;3.25;100.00;101402.25;5055806;28;20036;-39
2024/03/08 08:22:41;;;;;;;20.17;18.02;;;;;;;3.29;100.00;101406.28;5055709;28;20029;-39
2024/03/08 08:25:08;;;;;;;19.67;16.77;;;;;;;3.30;100.00;101389.22;5056467;28;20044;-39
2024/03/08 08:27:33;;;;;;;;;;;;;;;3.52;100.00;101409.91;5055831;28;20055;-39
2024/03/08 08:29:59;;;;;;;19.07;17.07;;;;;;;3.56;100.00;101397.00;5055677;28;19967;-39
2024/03/08 08:32:24;;;;;;;20.77;16.65;;;;;;;3.64;100.00;101397.00;5055814;28;20270;-39
2024/03/08 08:34:50;;;;;;;20.67;16.00;;;;;;;3.71;100.00;101392.63;5055985;28;20461;-39
2024/03/08 08:37:16;;;;;;;20.35;17.75;;;;;;;3.73;100.00;101387.94;5055704;28;20028;-39
2024/03/08 08:39:42;;;;;;;20.58;17.27;;;;;;;3.82;100.00;101392.25;5055661;28;20035;-39
2024/03/08 08:42:09;;;;;;;21.27;16.60;;;;;;;3.82;100.00;101368.19;5055692;28;20036;-40
2024/03/08 08:44:35;;;;;;;24.52;17.67;;;;;;;3.93;100.00;101385.69;5056432;28;20028;-40
2024/03/08 08:47:01;;;;;;;18.42;16.13;;;;;;;3.97;100.00;101373.63;5055333;28;20020;-40
2024/03/08 08:49:26;;;;;;;18.80;16.80;;;;;;;4.06;100.00;101377.94;5055838;28;20095;-39
2024/03/08 08:51:52;;;;;;;17.33;15.53;;;;;;;4.21;100.00;101370.00;5055470;28;20071;-39
2024/03/08 08:54:17;;;;;;;18.80;16.30;;;;;;;4.28;100.00;101381.66;5055346;28;20040;-39
2024/03/08 08:56:47;;;;;;;18.17;15.02;;;;;;;4.43;100.00;101373.69;5055395;28;20446;-39
2024/03/08 08:59:19;;;;;;;17.95;16.05;;;;;;;4.46;100.00;101367.16;5055562;28;20080;-39
2024/03/08 09:01:46;;;;;;;18.15;15.50;;;;;;;4.54;100.00;101361.72;5056054;28;20017;-39
2024/03/08 09:04:12;;;;;;;18.33;16.33;;;;;;;4.59;100.00;101359.38;5055504;28;20439;-39
2024/03/08 09:06:37;;;;;;;18.70;14.40;;;;;;;4.61;100.00;101349.28;5054935;28;20104;-39
2024/03/08 09:09:04;;;;;;;18.23;15.43;;;;;;;4.74;100.00;101346.03;5055690;28;20066;-39
2024/03/08 09:11:30;;;;;;;17.73;15.55;;;;;;;4.91;100.00;101353.72;5055039;28;20042;-39
2024/03/08 09:13:55;;;;;;;18.50;15.00;;;;;;;4.99;100.00;101350.13;5054725;28;20052;-39
2024/03/08 09:16:21;;;;;;;19.30;16.00;;;;;;;4.94;100.00;101333.78;5055292;28;20104;-39
2024/03/08 09:18:47;;;;;;;17.30;15.23;;;;;;;5.06;100.00;101343.03;5054895;28;20047;-39
2024/03/08 09:21:13;;;;;;;18.08;15.45;;;;;;;5.11;100.00;101334.44;5054553;28;20490;-39
2024/03/08 09:23:40;;;;;;;15.70;14.07;;;;;;;5.19;100.00;101329.00;5055187;28;20052;-38
2024/03/08 09:26:08;;;;;;;18.83;15.35;;;;;;;5.27;100.00;101333.41;5054455;28;20039;-39
2024/03/08 09:28:34;;;;;;;17.75;14.48;;;;;;;5.35;100.00;101326.13;5055282;28;20067;-39
2024/03/08 09:31:01;;;;;;;;;;;;;;;5.49;100.00;101320.94;5055116;28;20024;-39
2024/03/08 09:33:28;;;;;;;16.00;14.15;;;;;;;5.53;100.00;101308.84;5054690;28;19911;-39
2024/03/08 09:35:54;;;;;;;16.00;13.60;;;;;;;5.66;100.00;101309.84;5054541;28;20021;-39
2024/03/08 09:38:20;;;;;;;17.38;15.25;;;;;;;5.68;100.00;101299.75;5054056;28;20070;-39
2024/03/08 09:40:45;;;;;;;16.17;14.02;;;;;;;5.80;100.00;101278.59;5054469;28;20077;-39
2024/03/08 09:43:14;;;;;;;18.03;14.83;;;;;;;5.97;100.00;101287.31;5055073;28;20052;-39
2024/03/08 09:45:41;;;;;;;15.73;12.77;;;;;;;6.08;100.00;101280.59;5054361;28;20766;-39
2024/03/08 09:48:13;;;;;;;15.90;13.63;;;;;;;6.22;100.00;101273.53;5054735;28;20400;-39
2024/03/08 09:50:41;;;;;;;17.10;14.18;;;;;;;6.31;100.00;101270.50;5055191;28;20392;-39
2024/03/08 09:53:08;;;;;;;17.08;14.50;;;;;;;6.39;100.00;101265.03;5053982;28;20029;-39
2024/03/08 09:55:39;;;;;;;15.98;14.25;;;;;;;6.43;100.00;101255.53;5054029;28;20063;-39
2024/03/08 09:58:36;;;;;;;15.55;13.00;;;;;;;6.45;100.00;101247.28;5055025;28;20182;-39
2024/03/08 10:01:02;;;;;;;15.85;13.23;;;;;;;6.54;100.00;101250.63;5054535;28;20028;-40
2024/03/08 10:03:29;;;;;;;15.48;13.43;;;;;;;6.59;100.00;101242.84;5054084;28;20060;-39
2024/03/08 10:06:00;;;;;;;14.52;12.27;;;;;;;6.63;100.00;101238.72;5054244;28;20456;-39
2024/03/08 10:08:31;;;;;;;16.05;13.32;;;;;;;6.74;100.00;101235.53;5054045;28;20029;-39
2024/03/08 10:10:58;;;;;;;14.70;13.07;;;;;;;6.82;100.00;101224.59;5053758;28;20016;-39
2024/03/08 10:13:26;;;;;;;15.52;13.07;;;;;;;6.84;100.00;101224.44;5053885;28;20044;-39
2024/03/08 10:15:52;;;;;;;14.95;13.35;;;;;;;6.83;100.00;101218.22;5053842;28;20113;-39
2024/03/08 10:18:18;;;;;;;14.82;12.73;;;;;;;6.95;100.00;101202.34;5053810;28;20103;-39
2024/03/08 10:20:43;;;;;;;14.70;12.37;;;;;;;7.08;100.00;101199.75;5054427;28;20107;-39
2024/03/08 10:23:09;;;;;;;16.93;13.13;;;;;;;7.22;100.00;101203.31;5053775;28;20053;-39
2024/03/08 10:25:35;;;;;;;15.13;13.27;;;;;;;7.27;100.00;101198.19;5054006;28;20036;-39
2024/03/08 10:28:04;;;;;;;16.50;12.93;;;;;;;7.23;100.00;101197.75;5053406;28;20453;-39
2024/03/08 10:30:30;;;;;;;17.08;12.45;;;;;;;7.33;100.00;101191.16;5053959;28;20393;-39
2024/03/08 10:32:56;;;;;;;14.10;12.57;;;;;;;7.42;100.00;101179.19;5053315;28;20025;-39
2024/03/08 10:35:22;;;;;;;;;;;;;;;7.61;100.00;101188.34;5054766;28;20276;-39
2024/03/08 10:37:57;;;;;;;14.60;13.10;;;;;;;7.59;100.00;101182.34;5053756;28;19909;-39
2024/03/08 10:40:25;;;;;;;14.95;12.63;;;;;;;7.64;100.00;101177.19;5053857;28;20021;-39
2024/03/08 10:42:57;;;;;;;14.68;13.15;;;;;;;7.58;100.00;101180.69;5053774;28;20020;-39
2024/03/08 10:45:25;;;;;;;14.90;12.93;;;;;;;7.73;100.00;101174.09;5054006;28;20024;-39
2024/03/08 10:48:02;;;;;;;18.00;12.70;;;;;;;7.74;100.00;101166.84;5053631;28;20116;-39
2024/03/08 10:50:28;;;;;;;13.85;12.45;;;;;;;7.88;100.00;101165.81;5053828;28;20025;-39
2024/03/08 10:52:57;;;;;;;13.88;12.38;;;;;;;7.85;100.00;101155.47;5053366;28;20024;-39
2024/03/08 10:55:26;;;;;;;13.93;12.45;;;;;;;8.02;100.00;101161.28;5054246;28;20445;-39
2024/03/08 10:57:52;;;;;;;15.02;11.88;;;;;;;8.07;100.00;101152.59;5052995;28;20025;-40
2024/03/08 11:00:25;;;;;;;;;;;;;;;8.16;100.00;101145.97;5053975;28;20057;-40
2024/03/08 11:02:51;;;;;;;12.43;10.98;;;;;;;8.16;100.00;101144.09;5053845;28;19911;-40
2024/03/08 11:05:35;;;;;;;13.77;12.25;;;;;;;8.25;100.00;101144.72;5053855;28;20028;-38
2024/03/08 11:08:01;;;;;;;15.52;12.07;;;;;;;8.29;100.00;101137.03;5052897;28;20045;-39
2024/03/08 11:10:28;;;;;;;13.63;12.23;;;;;;;8.33;100.00;101136.41;5053755;28;20017;-39
2024/03/08 11:12:53;;;;;;;12.85;10.88;;;;;;;8.33;99.44;101133.72;5053179;28;20108;-39
2024/03/08 11:15:18;;;;;;;14.23;11.73;;;;;;;8.35;98.96;101110.09;5053887;28;20100;-40
2024/03/08 11:17:49;;;;;;;13.90;11.73;;;;;;;8.50;98.78;101116.09;5053428;28;20679;-40